Evesham Township, New Jersey
Current Conditions -  °F | °C
As of 6:54 AM on Friday 28 Nov 2014 (Local Time) from KVAY Reporting Station
Clear Clear  
Wind Chill: 26°   Ceiling: Unl
Heat Index: 32°   Visibility: 10mi
Dew Point: 22°   Wind: 7mph
Humidity: 66%   Direction: 260°W
Pressure: 30.17"   Gusts: NA
Location:  39.8786°N, 74.8969°W
Report Text: KVAY 281154Z AUTO 26006KT 10SM CLR 00/M06 A3017 RMK AO2 SLP216 60000 T00001056 10011 21017 53015
Loading
Personal Weather Stations






























Interactive Weather Map New forecast layout! Learn more

10-Day Weather Forecast

Advertisements
Track Severe Weather on mobile